Nrp Hidra — CTIL — position and weather

sailwx.info

Track history (hours):
 
Tides and Currents Weather Stations Pressure Air Temp Water Temp Dewpoint Dewpoint Depression Visibility Wind Speed Wind Dir Waves Ship Positions

Nrp Hidra

Last reported at 2017-Nov-10 19:47 UTC. Time now 2017-Dec-13 20:51 UTC.
Position N 38°40' W 009°09'.
Warning: this ship's position is 33 days out of date.

Length 27 m; draft 2.8 m.

Type: Military. MMSI: 263125000.

Date/timePositionNaut miles runAvg speedWind from/ knotsBaromVisibWave heightAir tempDewpointWater temp
2017-Nov-10 19:47N 38°40' W 009°09'0 0.0
2017-Nov-10 19:29N 38°40' W 009°09'0 0.0
2017-Nov-10 18:58N 38°40' W 009°09'0 1.0
2017-Nov-10 18:30N 38°40' W 009°08'5 9.3
2017-Nov-10 18:00N 38°41' W 009°14'713.3
2017-Nov-10 17:30N 38°38' W 009°22'2 4.7
2017-Nov-10 17:00N 38°35' W 009°23'713.1
2017-Nov-10 16:30N 38°30' W 009°18'713.5
2017-Nov-10 16:00N 38°24' W 009°14'1 1.9
2017-Nov-10 15:30N 38°25' W 009°15'1 2.8
2017-Nov-10 15:00N 38°24' W 009°13'3 5.9
2017-Nov-10 14:26N 38°24' W 009°09'1 3.0
2017-Nov-10 13:59N 38°24' W 009°07'2 3.7
2017-Nov-10 13:30N 38°24' W 009°05'1 2.7
2017-Nov-10 13:00N 38°24' W 009°07'3 4.5
2017-Nov-10 12:26N 38°23' W 009°10'18 7.3
2017-Nov-10 09:57N 38°40' W 009°19'612.6
2017-Nov-10 09:30N 38°41' W 009°12'3 5.3
2017-Nov-10 09:00N 38°40' W 009°08'0 0.9
2017-Nov-10 08:30N 38°40' W 009°09'0 0.0
2017-Nov-10 08:00N 38°40' W 009°09'0 0.0
2017-Nov-10 07:30N 38°40' W 009°09'0 0.0
2017-Nov-10 07:00N 38°40' W 009°09'0 0.0
2017-Nov-10 06:30N 38°40' W 009°09'0 0.0
2017-Nov-10 06:00N 38°40' W 009°09'0 0.0
2017-Nov-10 05:30N 38°40' W 009°09'0 0.0
2017-Nov-10 05:00N 38°40' W 009°09'0 0.0
2017-Nov-10 04:30N 38°40' W 009°09'0 0.0
2017-Nov-10 04:00N 38°40' W 009°09'0 0.0
2017-Nov-10 03:30N 38°40' W 009°09'0 0.0
2017-Nov-10 03:00N 38°40' W 009°09'0 0.0
2017-Nov-10 02:30N 38°40' W 009°09'0 0.0
2017-Nov-10 01:59N 38°40' W 009°09'0 0.0
2017-Nov-10 01:30N 38°40' W 009°09'0 0.0
2017-Nov-10 00:59N 38°40' W 009°09'0 0.0
2017-Nov-10 00:30N 38°40' W 009°09'0 0.0
2017-Nov-10 00:00N 38°40' W 009°09'0 0.0
2017-Nov-09 23:30N 38°40' W 009°09'0 0.0
2017-Nov-09 23:00N 38°40' W 009°09'0 0.0
2017-Nov-09 22:30N 38°40' W 009°09'0 0.0
2017-Nov-09 22:00N 38°40' W 009°09'0 0.0
2017-Nov-09 21:29N 38°40' W 009°09'0 0.0
2017-Nov-09 20:57N 38°40' W 009°09'0 0.0
2017-Nov-09 20:30N 38°40' W 009°09'0 0.0
2017-Nov-09 20:00N 38°40' W 009°09'0 0.0
2017-Nov-09 19:22N 38°40' W 009°09'0 0.0
2017-Nov-09 19:00N 38°40' W 009°09'0 0.0
2017-Nov-09 18:27N 38°40' W 009°09'0 0.0
2017-Nov-09 17:52N 38°40' W 009°09'0 0.0
2017-Nov-09 17:26N 38°40' W 009°09'0 0.0
2017-Nov-09 17:00N 38°40' W 009°09'0 0.0
2017-Nov-09 16:26N 38°40' W 009°09'0 0.0
2017-Nov-09 15:54N 38°40' W 009°09'0 0.0
2017-Nov-09 15:30N 38°40' W 009°09'0 0.0
2017-Nov-09 14:57N 38°40' W 009°09'0 0.0
2017-Nov-09 14:30N 38°40' W 009°09'0 0.0
2017-Nov-09 13:58N 38°40' W 009°09'0 0.0
2017-Nov-09 13:28N 38°40' W 009°09'0 0.0
2017-Nov-09 12:58N 38°40' W 009°09'0 0.0
2017-Nov-09 12:30N 38°40' W 009°09'0 0.0
2017-Nov-09 11:58N 38°40' W 009°09'0 0.0
2017-Nov-09 11:16N 38°40' W 009°09'0 0.0
2017-Nov-09 11:00N 38°40' W 009°09'0 0.0
2017-Nov-09 10:18N 38°40' W 009°09'0 0.0
2017-Nov-09 09:59N 38°40' W 009°09'0 0.0
2017-Nov-09 09:30N 38°40' W 009°09'0 0.0
2017-Nov-09 08:59N 38°40' W 009°09'0 0.0
2017-Nov-08 09:49N 38°40' W 009°09'0 0.0
2017-Nov-08 09:30N 38°40' W 009°09'0 0.0
2017-Nov-08 08:55N 38°40' W 009°09'0 0.0
2017-Nov-08 08:30N 38°40' W 009°09'0 0.0
2017-Nov-08 08:00N 38°40' W 009°09'0 0.0
2017-Nov-08 07:25N 38°40' W 009°09'0 0.0
2017-Nov-08 06:48N 38°40' W 009°09'0 0.0
2017-Nov-08 06:30N 38°40' W 009°09'0 0.0
2017-Nov-08 05:56N 38°40' W 009°09'0 0.0
2017-Nov-08 05:30N 38°40' W 009°09'0 0.0
2017-Nov-08 05:00N 38°40' W 009°09'0 0.0
2017-Nov-08 04:25N 38°40' W 009°09'0 0.0
2017-Nov-08 03:57N 38°40' W 009°09'0 0.0
2017-Nov-08 03:30N 38°40' W 009°09'0 0.0
2017-Nov-08 02:48N 38°40' W 009°09'0 0.0
2017-Nov-08 02:27N 38°40' W 009°09'0 0.0
2017-Nov-08 02:00N 38°40' W 009°09'0 0.0
2017-Nov-08 01:30N 38°40' W 009°09'0 0.0
2017-Nov-08 00:52N 38°40' W 009°09'0 0.0
2017-Nov-08 00:30N 38°40' W 009°09'0 0.0
2017-Nov-08 00:00N 38°40' W 009°09'0 0.0
2017-Nov-07 23:20N 38°40' W 009°09'0 0.0
2017-Nov-07 23:00N 38°40' W 009°09'0 0.0
2017-Nov-07 22:28N 38°40' W 009°09'0 0.0
2017-Nov-07 22:00N 38°40' W 009°09'0 0.0
2017-Nov-07 21:30N 38°40' W 009°09'0 0.0
2017-Nov-07 21:00N 38°40' W 009°09'0 0.0
2017-Nov-07 20:30N 38°40' W 009°09'0 0.0
2017-Nov-07 20:00N 38°40' W 009°09'0 0.0
2017-Nov-07 19:27N 38°40' W 009°09'0 0.0
2017-Nov-07 18:59N 38°40' W 009°09'0 0.0
2017-Nov-07 18:30N 38°40' W 009°09'0 0.0
2017-Nov-07 17:58N 38°40' W 009°09'0 0.0
2017-Nov-07 17:28N 38°40' W 009°09'0 0.0
2017-Nov-07 16:59N 38°40' W 009°09'0 0.0
2017-Nov-07 16:29N 38°40' W 009°09'0 0.0
2017-Nov-07 15:59N 38°40' W 009°09'0 0.0
2017-Nov-07 15:29N 38°40' W 009°09'0 0.0
2017-Nov-07 14:58N 38°40' W 009°09'0 0.0
2017-Nov-07 14:28N 38°40' W 009°09'0 0.0
2017-Nov-07 13:51N 38°40' W 009°09'0 0.0
2017-Nov-07 13:28N 38°40' W 009°09'0 0.0
2017-Nov-07 12:59N 38°40' W 009°09'0 0.0
2017-Nov-07 12:19N 38°40' W 009°09'0 0.0
2017-Nov-07 12:00N 38°40' W 009°09'0 0.0
2017-Nov-07 11:28N 38°40' W 009°09'0 0.0
2017-Nov-07 11:00N 38°40' W 009°09'0 0.0
2017-Nov-07 10:24N 38°40' W 009°09'0 0.0
2017-Nov-07 09:58N 38°40' W 009°09'0 0.0
2017-Nov-07 09:24N 38°40' W 009°09'0 0.0
2017-Nov-07 08:56N 38°40' W 009°09'0 0.0
2017-Nov-07 08:30N 38°40' W 009°09'0 0.0
2017-Nov-07 08:00N 38°40' W 009°09'0 0.0
2017-Nov-07 07:30N 38°40' W 009°09'0 0.0
2017-Nov-07 07:00N 38°40' W 009°09'0 0.0
2017-Nov-07 06:30N 38°40' W 009°09'0 0.0
2017-Nov-07 05:59N 38°40' W 009°09'0 0.0
2017-Nov-07 05:30N 38°40' W 009°09'0 0.0
2017-Nov-07 04:59N 38°40' W 009°09'0 0.0
2017-Nov-07 04:30N 38°40' W 009°09'0 0.0
2017-Nov-07 04:00N 38°40' W 009°09'0 0.0
2017-Nov-07 03:30N 38°40' W 009°09'0 0.0
2017-Nov-07 03:00N 38°40' W 009°09'0 0.0
2017-Nov-07 02:29N 38°40' W 009°09'0 0.0
2017-Nov-07 02:00N 38°40' W 009°09'0 0.0
2017-Nov-07 01:30N 38°40' W 009°09'0 0.0
2017-Nov-07 01:00N 38°40' W 009°09'0 0.0
2017-Nov-07 00:30N 38°40' W 009°09'0 0.0
2017-Nov-06 23:58N 38°40' W 009°09'0 0.0
2017-Nov-06 23:29N 38°40' W 009°09'0 0.0
2017-Nov-06 22:53N 38°40' W 009°09'0 0.0
2017-Nov-06 22:29N 38°40' W 009°09'0 0.0
2017-Nov-06 22:00N 38°40' W 009°09'0 0.0
2017-Nov-06 21:30N 38°40' W 009°09'0 0.0
2017-Nov-06 20:58N 38°40' W 009°09'0 0.0
2017-Nov-06 20:29N 38°40' W 009°09'0 0.0
2017-Nov-06 02:30N 38°40' W 009°09'0 0.0
2017-Nov-06 01:51N 38°40' W 009°09'0 0.0
2017-Nov-06 01:30N 38°40' W 009°09'0 0.0
2017-Nov-06 00:57N 38°40' W 009°09'0 0.0
2017-Nov-06 00:30N 38°40' W 009°09'0 0.0
2017-Nov-05 23:59N 38°40' W 009°09'0 0.0
2017-Nov-05 23:28N 38°40' W 009°09'0 0.0
2017-Nov-05 22:59N 38°40' W 009°09'0 0.0
2017-Nov-05 22:10N 38°40' W 009°09'0 0.0
2017-Nov-05 21:55N 38°40' W 009°09'0 0.0
2017-Nov-05 21:28N 38°40' W 009°09'0 0.0
2017-Nov-05 21:00N 38°40' W 009°09'0 0.0
2017-Nov-05 20:28N 38°40' W 009°09'0 0.0
2017-Nov-05 19:55N 38°40' W 009°09'0 0.0
2017-Nov-05 19:29N 38°40' W 009°09'0 0.0
2017-Nov-05 19:00N 38°40' W 009°09'0 0.0
2017-Nov-05 18:29N 38°40' W 009°09'0 0.0
2017-Nov-05 18:00N 38°40' W 009°09'0 0.0
2017-Nov-05 17:30N 38°40' W 009°09'0 0.0
2017-Nov-05 17:00N 38°40' W 009°09'0 0.0
2017-Nov-05 16:28N 38°40' W 009°09'0 0.0
2017-Nov-05 15:58N 38°40' W 009°09'0 0.0
2017-Nov-05 15:29N 38°40' W 009°09'0 0.0
2017-Nov-05 15:00N 38°40' W 009°09'0 0.0
2017-Nov-05 14:29N 38°40' W 009°09'0 0.0
2017-Nov-05 14:00N 38°40' W 009°09'0 0.0
2017-Nov-05 13:30N 38°40' W 009°09'0 0.0
2017-Nov-05 13:00N 38°40' W 009°09'0 0.0
2017-Nov-05 12:28N 38°40' W 009°09'0 0.0
2017-Nov-05 11:59N 38°40' W 009°09'0 0.0
2017-Nov-05 11:30N 38°40' W 009°09'0 0.0
2017-Nov-05 10:59N 38°40' W 009°09'0 0.0
2017-Nov-05 10:30N 38°40' W 009°09'0 0.0
2017-Nov-05 09:59N 38°40' W 009°09'0 0.0
2017-Nov-05 09:29N 38°40' W 009°09'0 0.0
2017-Nov-05 08:55N 38°40' W 009°09'0 0.0
2017-Nov-05 08:29N 38°40' W 009°09'0 0.0
2017-Nov-05 07:56N 38°40' W 009°09'0 0.0
2017-Nov-05 07:26N 38°40' W 009°09'0 0.0
2017-Nov-05 07:00N 38°40' W 009°09'0 0.0
2017-Nov-05 06:28N 38°40' W 009°09'0 0.0
2017-Nov-05 06:00N 38°40' W 009°09'0 0.0
2017-Nov-05 05:27N 38°40' W 009°09'0 0.0
2017-Nov-05 05:00N 38°40' W 009°09'0 0.0
2017-Nov-05 04:26N 38°40' W 009°09'0 0.0
2017-Nov-05 03:48N 38°40' W 009°09'0 0.0
2017-Nov-05 03:29N 38°40' W 009°09'0 0.0
2017-Nov-05 02:57N 38°40' W 009°09'0 0.0
2017-Nov-05 02:28N 38°40' W 009°09'0 0.0
2017-Nov-05 01:54N 38°40' W 009°09'0 0.0
2017-Nov-05 01:28N 38°40' W 009°09'0 0.0
2017-Nov-05 01:00N 38°40' W 009°09'0 0.0
2017-Nov-05 00:26N 38°40' W 009°09'0 0.0
2017-Nov-04 23:54N 38°40' W 009°09'0 0.0
2017-Nov-04 23:28N 38°40' W 009°09'0 0.0
2017-Nov-04 22:57N 38°40' W 009°09'0 0.0
2017-Nov-04 22:29N 38°40' W 009°09'0 0.0
2017-Nov-04 21:51N 38°40' W 009°09'0 0.0
2017-Nov-04 21:28N 38°40' W 009°09'0 0.0
2017-Nov-04 20:59N 38°40' W 009°09'0 0.0
2017-Nov-04 20:29N 38°40' W 009°09'0 0.0
2017-Nov-04 19:58N 38°40' W 009°09'0 0.0
2017-Nov-04 19:29N 38°40' W 009°09'0 0.0
2017-Nov-04 18:55N 38°40' W 009°09'0 0.0
2017-Nov-04 18:28N 38°40' W 009°09'0 0.0
2017-Nov-04 17:55N 38°40' W 009°09'0 0.0
2017-Nov-04 17:30N 38°40' W 009°09'0 0.0
2017-Nov-04 17:00N 38°40' W 009°09'0 0.0
2017-Nov-04 16:22N 38°40' W 009°09'0 0.0
2017-Nov-04 16:00N 38°40' W 009°09'0 0.0
2017-Nov-04 15:27N 38°40' W 009°09'0 0.0
2017-Nov-04 14:54N 38°40' W 009°09'0 0.0
2017-Nov-04 14:28N 38°40' W 009°09'0 0.0
2017-Nov-04 14:00N 38°40' W 009°09'0 0.0
2017-Nov-04 13:24N 38°40' W 009°09'0 0.0
2017-Nov-04 12:56N 38°40' W 009°09'0 0.0
2017-Nov-04 12:26N 38°40' W 009°09'0 0.0
2017-Nov-04 11:59N 38°40' W 009°09'0 0.0
2017-Nov-04 11:18N 38°40' W 009°09'0 0.0
2017-Nov-04 11:00N 38°40' W 009°09'0 0.0
2017-Nov-04 10:27N 38°40' W 009°09'0 0.0
2017-Nov-04 10:00N 38°40' W 009°09'0 0.0
2017-Nov-04 09:30N 38°40' W 009°09'0 0.0
2017-Nov-04 08:48N 38°40' W 009°09'0 0.0
2017-Nov-04 08:18N 38°40' W 009°09'0 0.0
2017-Nov-04 07:56N 38°40' W 009°09'0 0.0
2017-Nov-04 07:24N 38°40' W 009°09'0 0.0
2017-Nov-04 06:58N 38°40' W 009°09'0 0.0
2017-Nov-04 06:29N 38°40' W 009°09'0 0.0
2017-Nov-04 05:55N 38°40' W 009°09'0 0.0
2017-Nov-04 05:23N 38°40' W 009°09'0 0.0
2017-Nov-04 05:00N 38°40' W 009°09'0 0.0
2017-Nov-04 04:30N 38°40' W 009°09'0 0.0
2017-Nov-04 04:00N 38°40' W 009°09'0 0.0
2017-Nov-04 03:28N 38°40' W 009°09'0 0.0
2017-Nov-04 03:00N 38°40' W 009°09'0 0.0
2017-Nov-04 02:29N 38°40' W 009°09'0 0.0
2017-Nov-04 01:51N 38°40' W 009°09'0 0.0
2017-Nov-04 01:29N 38°40' W 009°09'0 0.0
2017-Nov-04 01:00N 38°40' W 009°09'0 0.0
2017-Nov-04 00:30N 38°40' W 009°09'0 0.0
2017-Nov-04 00:00N 38°40' W 009°09'0 0.0
2017-Nov-03 23:30N 38°40' W 009°09'0 0.0
2017-Nov-03 22:56N 38°40' W 009°09'0 0.0
2017-Nov-03 22:20N 38°40' W 009°09'0 0.0
2017-Nov-03 22:00N 38°40' W 009°09'0 0.0
2017-Nov-03 21:26N 38°40' W 009°09'0 0.0
2017-Nov-03 20:41N 38°40' W 009°09'0 0.0
2017-Nov-03 20:21N 38°40' W 009°09'0 0.0
2017-Nov-03 19:49N 38°40' W 009°09'0 0.0
2017-Nov-03 19:27N 38°40' W 009°09'0 0.0
2017-Nov-03 18:59N 38°40' W 009°09'0 0.0
2017-Nov-03 18:24N 38°40' W 009°09'0 0.0
2017-Nov-03 17:53N 38°40' W 009°09'0 0.0
2017-Nov-03 17:20N 38°40' W 009°09'0 0.0
2017-Nov-03 16:52N 38°40' W 009°09'0 0.0
2017-Nov-03 16:29N 38°40' W 009°09'0 0.0
2017-Nov-03 16:00N 38°40' W 009°09'0 0.0
2017-Nov-03 15:30N 38°40' W 009°09'0 0.0
2017-Nov-03 14:59N 38°40' W 009°09'0 0.0
2017-Nov-03 14:29N 38°40' W 009°09'0 0.0
2017-Nov-03 13:55N 38°40' W 009°09'0 0.0
2017-Nov-03 13:30N 38°40' W 009°09'0 0.0
2017-Nov-03 13:00N 38°40' W 009°09'0 0.0
2017-Nov-03 12:24N 38°40' W 009°09'0 0.0
2017-Nov-03 11:58N 38°40' W 009°09'0 0.0
2017-Nov-03 11:23N 38°40' W 009°09'0 0.0
2017-Nov-03 10:58N 38°40' W 009°09'0 0.0
2017-Nov-03 10:27N 38°40' W 009°09'0 0.0
2017-Nov-03 09:59N 38°40' W 009°09'0 0.0
2017-Nov-03 09:24N 38°40' W 009°09'0 0.0
2017-Nov-03 08:58N 38°40' W 009°09'0 0.0
2017-Nov-03 08:30N 38°40' W 009°09'0 0.0
2017-Nov-03 07:59N 38°40' W 009°09'0 0.0
2017-Nov-03 07:26N 38°40' W 009°09'0 0.0
2017-Nov-03 07:00N 38°40' W 009°09'0 0.0
2017-Nov-03 06:30N 38°40' W 009°09'0 0.0
2017-Nov-03 05:58N 38°40' W 009°09'0 0.0
2017-Nov-03 05:26N 38°40' W 009°09'0 0.0
2017-Nov-03 04:54N 38°40' W 009°09'0 0.0
2017-Nov-03 04:26N 38°40' W 009°09'0 0.0
2017-Nov-03 03:52N 38°40' W 009°09'0 0.0
2017-Nov-03 03:20N 38°40' W 009°09'0 0.0
2017-Nov-03 03:00N 38°40' W 009°09'0 0.0
2017-Nov-03 02:21N 38°40' W 009°09'0 0.0
2017-Nov-03 02:00N 38°40' W 009°09'0 0.0
2017-Nov-03 01:30N 38°40' W 009°09'0 0.0
2017-Nov-03 00:59N 38°40' W 009°09'0 0.0
2017-Nov-03 00:30N 38°40' W 009°09'0 0.0
2017-Nov-03 00:00N 38°40' W 009°09'0 0.0
2017-Nov-02 22:58N 38°40' W 009°09'0 0.0
2017-Nov-02 22:26N 38°40' W 009°09'0 0.0
2017-Nov-02 21:56N 38°40' W 009°09'0 0.0
2017-Nov-02 21:30N 38°40' W 009°09'0 0.0
2017-Nov-02 20:59N 38°40' W 009°09'0 0.0
2017-Nov-02 20:29N 38°40' W 009°09'0 0.0
2017-Nov-02 19:58N 38°40' W 009°09'0 0.0
2017-Nov-02 19:27N 38°40' W 009°09'0 0.0
2017-Nov-02 18:49N 38°40' W 009°09'0 0.0
2017-Nov-02 18:27N 38°40' W 009°09'0 0.0
2017-Nov-02 18:00N 38°40' W 009°09'0 0.0
2017-Nov-02 17:28N 38°40' W 009°09'0 0.0
2017-Nov-02 16:53N 38°40' W 009°09'0 0.0
2017-Nov-02 16:27N 38°40' W 009°09'0 0.0
2017-Nov-02 16:00N 38°40' W 009°09'0 0.0
2017-Nov-02 15:27N 38°40' W 009°09'0 0.0
2017-Nov-02 15:00N 38°40' W 009°09'0 0.0
2017-Nov-02 14:30N 38°40' W 009°09'0 0.0
2017-Nov-02 14:00N 38°40' W 009°09'0 0.0
2017-Nov-02 13:25N 38°40' W 009°09'0 0.0
2017-Nov-02 12:51N 38°40' W 009°09'0 0.0
2017-Nov-02 12:27N 38°40' W 009°09'0 0.0
2017-Nov-02 11:58N 38°40' W 009°09'0 0.0
2017-Nov-02 11:29N 38°40' W 009°09'0 0.0
2017-Nov-02 10:56N 38°40' W 009°09'0 0.0
2017-Nov-02 10:28N 38°40' W 009°09'0 0.0
2017-Nov-02 10:00N 38°40' W 009°09'0 0.0
2017-Nov-02 09:28N 38°40' W 009°09'0 0.0
2017-Nov-02 08:59N 38°40' W 009°09'0 0.0
2017-Nov-02 08:30N 38°40' W 009°09'0 0.0
2017-Nov-02 08:00N 38°40' W 009°09'0 0.0
2017-Nov-02 07:24N 38°40' W 009°09'0 0.0
2017-Nov-02 06:54N 38°40' W 009°09'0 0.0
2017-Nov-02 06:29N 38°40' W 009°09'0 0.0
2017-Nov-02 06:00N 38°40' W 009°09'0 0.0
2017-Nov-02 05:29N 38°40' W 009°09'0 0.0
2017-Nov-02 04:58N 38°40' W 009°09'0 0.0
2017-Nov-02 04:27N 38°40' W 009°09'0 0.0
2017-Nov-02 03:59N 38°40' W 009°09'0 0.0
2017-Nov-02 03:30N 38°40' W 009°09'0 0.0
2017-Nov-02 03:00N 38°40' W 009°09'0 0.0
2017-Nov-02 02:26N 38°40' W 009°09'0 0.0
2017-Nov-02 01:55N 38°40' W 009°09'0 0.0
2017-Nov-02 01:28N 38°40' W 009°09'0 0.0
2017-Nov-02 00:51N 38°40' W 009°09'0 0.0
2017-Nov-02 00:26N 38°40' W 009°09'0 0.0
2017-Nov-01 23:46N 38°40' W 009°09'0 0.0
2017-Nov-01 23:27N 38°40' W 009°09'0 0.0
2017-Nov-01 23:00N 38°40' W 009°09'0 0.0
2017-Nov-01 22:30N 38°40' W 009°09'0 0.0
2017-Nov-01 21:58N 38°40' W 009°09'0 0.0
2017-Nov-01 21:28N 38°40' W 009°09'0 0.0
2017-Nov-01 20:55N 38°40' W 009°09'0 0.0
2017-Nov-01 20:30N 38°40' W 009°09'0 0.0
2017-Nov-01 19:55N 38°40' W 009°09'0 0.0
2017-Nov-01 19:29N 38°40' W 009°09'0 0.0
2017-Nov-01 19:00N 38°40' W 009°09'0 0.0
2017-Nov-01 18:30N 38°40' W 009°09'0 0.0
2017-Nov-01 01:39N 38°40' W 009°09'0 0.0
2017-Nov-01 01:23N 38°40' W 009°09'0 0.0
2017-Nov-01 00:51N 38°40' W 009°09'0 0.0
2017-Nov-01 00:27N 38°40' W 009°09'0 0.0
2017-Oct-31 23:58N 38°40' W 009°09'0 0.0
2017-Oct-31 23:23N 38°40' W 009°09'0 0.0
2017-Oct-31 22:57N 38°40' W 009°09'0 0.0
2017-Oct-31 22:23N 38°40' W 009°09'0 0.0
2017-Oct-31 21:54N 38°40' W 009°09'0 0.0
2017-Oct-31 21:27N 38°40' W 009°09'0 0.0
2017-Oct-31 20:59N 38°40' W 009°09'0 0.0
2017-Oct-31 20:30N 38°40' W 009°09'0 0.0
2017-Oct-31 19:59N 38°40' W 009°09'  
Track history (hours):
 
Tides and Currents Weather Stations Pressure Air Temp Water Temp Dewpoint Dewpoint Depression Visibility Wind Speed Wind Dir Waves Ship Positions

Nrp Hidra

Last reported at 2017-Nov-10 19:47 UTC. Time now 2017-Dec-13 20:51 UTC.
Position N 38°40' W 009°09'.
Warning: this ship's position is 33 days out of date.

Length 27 m; draft 2.8 m.

Type: Military. MMSI: 263125000.

Date/timePositionNaut miles runAvg speedWind from/ knotsBaromVisibWave heightAir tempDewpointWater temp
2017-Nov-10 19:47N 38°40' W 009°09'0 0.0
2017-Nov-10 19:29N 38°40' W 009°09'0 0.0
2017-Nov-10 18:58N 38°40' W 009°09'0 1.0
2017-Nov-10 18:30N 38°40' W 009°08'5 9.3
2017-Nov-10 18:00N 38°41' W 009°14'713.3
2017-Nov-10 17:30N 38°38' W 009°22'2 4.7
2017-Nov-10 17:00N 38°35' W 009°23'713.1
2017-Nov-10 16:30N 38°30' W 009°18'713.5
2017-Nov-10 16:00N 38°24' W 009°14'1 1.9
2017-Nov-10 15:30N 38°25' W 009°15'1 2.8
2017-Nov-10 15:00N 38°24' W 009°13'3 5.9
2017-Nov-10 14:26N 38°24' W 009°09'1 3.0
2017-Nov-10 13:59N 38°24' W 009°07'2 3.7
2017-Nov-10 13:30N 38°24' W 009°05'1 2.7
2017-Nov-10 13:00N 38°24' W 009°07'3 4.5
2017-Nov-10 12:26N 38°23' W 009°10'18 7.3
2017-Nov-10 09:57N 38°40' W 009°19'612.6
2017-Nov-10 09:30N 38°41' W 009°12'3 5.3
2017-Nov-10 09:00N 38°40' W 009°08'0 0.9
2017-Nov-10 08:30N 38°40' W 009°09'0 0.0
2017-Nov-10 08:00N 38°40' W 009°09'0 0.0
2017-Nov-10 07:30N 38°40' W 009°09'0 0.0
2017-Nov-10 07:00N 38°40' W 009°09'0 0.0
2017-Nov-10 06:30N 38°40' W 009°09'0 0.0
2017-Nov-10 06:00N 38°40' W 009°09'0 0.0
2017-Nov-10 05:30N 38°40' W 009°09'0 0.0
2017-Nov-10 05:00N 38°40' W 009°09'0 0.0
2017-Nov-10 04:30N 38°40' W 009°09'0 0.0
2017-Nov-10 04:00N 38°40' W 009°09'0 0.0
2017-Nov-10 03:30N 38°40' W 009°09'0 0.0
2017-Nov-10 03:00N 38°40' W 009°09'0 0.0
2017-Nov-10 02:30N 38°40' W 009°09'0 0.0
2017-Nov-10 01:59N 38°40' W 009°09'0 0.0
2017-Nov-10 01:30N 38°40' W 009°09'0 0.0
2017-Nov-10 00:59N 38°40' W 009°09'0 0.0
2017-Nov-10 00:30N 38°40' W 009°09'0 0.0
2017-Nov-10 00:00N 38°40' W 009°09'0 0.0
2017-Nov-09 23:30N 38°40' W 009°09'0 0.0
2017-Nov-09 23:00N 38°40' W 009°09'0 0.0
2017-Nov-09 22:30N 38°40' W 009°09'0 0.0
2017-Nov-09 22:00N 38°40' W 009°09'0 0.0
2017-Nov-09 21:29N 38°40' W 009°09'0 0.0
2017-Nov-09 20:57N 38°40' W 009°09'0 0.0
2017-Nov-09 20:30N 38°40' W 009°09'0 0.0
2017-Nov-09 20:00N 38°40' W 009°09'0 0.0
2017-Nov-09 19:22N 38°40' W 009°09'0 0.0
2017-Nov-09 19:00N 38°40' W 009°09'0 0.0
2017-Nov-09 18:27N 38°40' W 009°09'0 0.0
2017-Nov-09 17:52N 38°40' W 009°09'0 0.0
2017-Nov-09 17:26N 38°40' W 009°09'0 0.0
2017-Nov-09 17:00N 38°40' W 009°09'0 0.0
2017-Nov-09 16:26N 38°40' W 009°09'0 0.0
2017-Nov-09 15:54N 38°40' W 009°09'0 0.0
2017-Nov-09 15:30N 38°40' W 009°09'0 0.0
2017-Nov-09 14:57N 38°40' W 009°09'0 0.0
2017-Nov-09 14:30N 38°40' W 009°09'0 0.0
2017-Nov-09 13:58N 38°40' W 009°09'0 0.0
2017-Nov-09 13:28N 38°40' W 009°09'0 0.0
2017-Nov-09 12:58N 38°40' W 009°09'0 0.0
2017-Nov-09 12:30N 38°40' W 009°09'0 0.0
2017-Nov-09 11:58N 38°40' W 009°09'0 0.0
2017-Nov-09 11:16N 38°40' W 009°09'0 0.0
2017-Nov-09 11:00N 38°40' W 009°09'0 0.0
2017-Nov-09 10:18N 38°40' W 009°09'0 0.0
2017-Nov-09 09:59N 38°40' W 009°09'0 0.0
2017-Nov-09 09:30N 38°40' W 009°09'0 0.0
2017-Nov-09 08:59N 38°40' W 009°09'0 0.0
2017-Nov-08 09:49N 38°40' W 009°09'0 0.0
2017-Nov-08 09:30N 38°40' W 009°09'0 0.0
2017-Nov-08 08:55N 38°40' W 009°09'0 0.0
2017-Nov-08 08:30N 38°40' W 009°09'0 0.0
2017-Nov-08 08:00N 38°40' W 009°09'0 0.0
2017-Nov-08 07:25N 38°40' W 009°09'0 0.0
2017-Nov-08 06:48N 38°40' W 009°09'0 0.0
2017-Nov-08 06:30N 38°40' W 009°09'0 0.0
2017-Nov-08 05:56N 38°40' W 009°09'0 0.0
2017-Nov-08 05:30N 38°40' W 009°09'0 0.0
2017-Nov-08 05:00N 38°40' W 009°09'0 0.0
2017-Nov-08 04:25N 38°40' W 009°09'0 0.0
2017-Nov-08 03:57N 38°40' W 009°09'0 0.0
2017-Nov-08 03:30N 38°40' W 009°09'0 0.0
2017-Nov-08 02:48N 38°40' W 009°09'0 0.0
2017-Nov-08 02:27N 38°40' W 009°09'0 0.0
2017-Nov-08 02:00N 38°40' W 009°09'0 0.0
2017-Nov-08 01:30N 38°40' W 009°09'0 0.0
2017-Nov-08 00:52N 38°40' W 009°09'0 0.0
2017-Nov-08 00:30N 38°40' W 009°09'0 0.0
2017-Nov-08 00:00N 38°40' W 009°09'0 0.0
2017-Nov-07 23:20N 38°40' W 009°09'0 0.0
2017-Nov-07 23:00N 38°40' W 009°09'0 0.0
2017-Nov-07 22:28N 38°40' W 009°09'0 0.0
2017-Nov-07 22:00N 38°40' W 009°09'0 0.0
2017-Nov-07 21:30N 38°40' W 009°09'0 0.0
2017-Nov-07 21:00N 38°40' W 009°09'0 0.0
2017-Nov-07 20:30N 38°40' W 009°09'0 0.0
2017-Nov-07 20:00N 38°40' W 009°09'0 0.0
2017-Nov-07 19:27N 38°40' W 009°09'0 0.0
2017-Nov-07 18:59N 38°40' W 009°09'0 0.0
2017-Nov-07 18:30N 38°40' W 009°09'0 0.0
2017-Nov-07 17:58N 38°40' W 009°09'0 0.0
2017-Nov-07 17:28N 38°40' W 009°09'0 0.0
2017-Nov-07 16:59N 38°40' W 009°09'0 0.0
2017-Nov-07 16:29N 38°40' W 009°09'0 0.0
2017-Nov-07 15:59N 38°40' W 009°09'0 0.0
2017-Nov-07 15:29N 38°40' W 009°09'0 0.0
2017-Nov-07 14:58N 38°40' W 009°09'0 0.0
2017-Nov-07 14:28N 38°40' W 009°09'0 0.0
2017-Nov-07 13:51N 38°40' W 009°09'0 0.0
2017-Nov-07 13:28N 38°40' W 009°09'0 0.0
2017-Nov-07 12:59N 38°40' W 009°09'0 0.0
2017-Nov-07 12:19N 38°40' W 009°09'0 0.0
2017-Nov-07 12:00N 38°40' W 009°09'0 0.0
2017-Nov-07 11:28N 38°40' W 009°09'0 0.0
2017-Nov-07 11:00N 38°40' W 009°09'0 0.0
2017-Nov-07 10:24N 38°40' W 009°09'0 0.0
2017-Nov-07 09:58N 38°40' W 009°09'0 0.0
2017-Nov-07 09:24N 38°40' W 009°09'0 0.0
2017-Nov-07 08:56N 38°40' W 009°09'0 0.0
2017-Nov-07 08:30N 38°40' W 009°09'0 0.0
2017-Nov-07 08:00N 38°40' W 009°09'0 0.0
2017-Nov-07 07:30N 38°40' W 009°09'0 0.0
2017-Nov-07 07:00N 38°40' W 009°09'0 0.0
2017-Nov-07 06:30N 38°40' W 009°09'0 0.0
2017-Nov-07 05:59N 38°40' W 009°09'0 0.0
2017-Nov-07 05:30N 38°40' W 009°09'0 0.0
2017-Nov-07 04:59N 38°40' W 009°09'0 0.0
2017-Nov-07 04:30N 38°40' W 009°09'0 0.0
2017-Nov-07 04:00N 38°40' W 009°09'0 0.0
2017-Nov-07 03:30N 38°40' W 009°09'0 0.0
2017-Nov-07 03:00N 38°40' W 009°09'0 0.0
2017-Nov-07 02:29N 38°40' W 009°09'0 0.0
2017-Nov-07 02:00N 38°40' W 009°09'0 0.0
2017-Nov-07 01:30N 38°40' W 009°09'0 0.0
2017-Nov-07 01:00N 38°40' W 009°09'0 0.0
2017-Nov-07 00:30N 38°40' W 009°09'0 0.0
2017-Nov-06 23:58N 38°40' W 009°09'0 0.0
2017-Nov-06 23:29N 38°40' W 009°09'0 0.0
2017-Nov-06 22:53N 38°40' W 009°09'0 0.0
2017-Nov-06 22:29N 38°40' W 009°09'0 0.0
2017-Nov-06 22:00N 38°40' W 009°09'0 0.0
2017-Nov-06 21:30N 38°40' W 009°09'0 0.0
2017-Nov-06 20:58N 38°40' W 009°09'0 0.0
2017-Nov-06 20:29N 38°40' W 009°09'0 0.0
2017-Nov-06 02:30N 38°40' W 009°09'0 0.0
2017-Nov-06 01:51N 38°40' W 009°09'0 0.0
2017-Nov-06 01:30N 38°40' W 009°09'0 0.0
2017-Nov-06 00:57N 38°40' W 009°09'0 0.0
2017-Nov-06 00:30N 38°40' W 009°09'0 0.0
2017-Nov-05 23:59N 38°40' W 009°09'0 0.0
2017-Nov-05 23:28N 38°40' W 009°09'0 0.0
2017-Nov-05 22:59N 38°40' W 009°09'0 0.0
2017-Nov-05 22:10N 38°40' W 009°09'0 0.0
2017-Nov-05 21:55N 38°40' W 009°09'0 0.0
2017-Nov-05 21:28N 38°40' W 009°09'0 0.0
2017-Nov-05 21:00N 38°40' W 009°09'0 0.0
2017-Nov-05 20:28N 38°40' W 009°09'0 0.0
2017-Nov-05 19:55N 38°40' W 009°09'0 0.0
2017-Nov-05 19:29N 38°40' W 009°09'0 0.0
2017-Nov-05 19:00N 38°40' W 009°09'0 0.0
2017-Nov-05 18:29N 38°40' W 009°09'0 0.0
2017-Nov-05 18:00N 38°40' W 009°09'0 0.0
2017-Nov-05 17:30N 38°40' W 009°09'0 0.0
2017-Nov-05 17:00N 38°40' W 009°09'0 0.0
2017-Nov-05 16:28N 38°40' W 009°09'0 0.0
2017-Nov-05 15:58N 38°40' W 009°09'0 0.0
2017-Nov-05 15:29N 38°40' W 009°09'0 0.0
2017-Nov-05 15:00N 38°40' W 009°09'0 0.0
2017-Nov-05 14:29N 38°40' W 009°09'0 0.0
2017-Nov-05 14:00N 38°40' W 009°09'0 0.0
2017-Nov-05 13:30N 38°40' W 009°09'0 0.0
2017-Nov-05 13:00N 38°40' W 009°09'0 0.0
2017-Nov-05 12:28N 38°40' W 009°09'0 0.0
2017-Nov-05 11:59N 38°40' W 009°09'0 0.0
2017-Nov-05 11:30N 38°40' W 009°09'0 0.0
2017-Nov-05 10:59N 38°40' W 009°09'0 0.0
2017-Nov-05 10:30N 38°40' W 009°09'0 0.0
2017-Nov-05 09:59N 38°40' W 009°09'0 0.0
2017-Nov-05 09:29N 38°40' W 009°09'0 0.0
2017-Nov-05 08:55N 38°40' W 009°09'0 0.0
2017-Nov-05 08:29N 38°40' W 009°09'0 0.0
2017-Nov-05 07:56N 38°40' W 009°09'0 0.0
2017-Nov-05 07:26N 38°40' W 009°09'0 0.0
2017-Nov-05 07:00N 38°40' W 009°09'0 0.0
2017-Nov-05 06:28N 38°40' W 009°09'0 0.0
2017-Nov-05 06:00N 38°40' W 009°09'0 0.0
2017-Nov-05 05:27N 38°40' W 009°09'0 0.0
2017-Nov-05 05:00N 38°40' W 009°09'0 0.0
2017-Nov-05 04:26N 38°40' W 009°09'0 0.0
2017-Nov-05 03:48N 38°40' W 009°09'0 0.0
2017-Nov-05 03:29N 38°40' W 009°09'0 0.0
2017-Nov-05 02:57N 38°40' W 009°09'0 0.0
2017-Nov-05 02:28N 38°40' W 009°09'0 0.0
2017-Nov-05 01:54N 38°40' W 009°09'0 0.0
2017-Nov-05 01:28N 38°40' W 009°09'0 0.0
2017-Nov-05 01:00N 38°40' W 009°09'0 0.0
2017-Nov-05 00:26N 38°40' W 009°09'0 0.0
2017-Nov-04 23:54N 38°40' W 009°09'0 0.0
2017-Nov-04 23:28N 38°40' W 009°09'0 0.0
2017-Nov-04 22:57N 38°40' W 009°09'0 0.0
2017-Nov-04 22:29N 38°40' W 009°09'0 0.0
2017-Nov-04 21:51N 38°40' W 009°09'0 0.0
2017-Nov-04 21:28N 38°40' W 009°09'0 0.0
2017-Nov-04 20:59N 38°40' W 009°09'0 0.0
2017-Nov-04 20:29N 38°40' W 009°09'0 0.0
2017-Nov-04 19:58N 38°40' W 009°09'0 0.0
2017-Nov-04 19:29N 38°40' W 009°09'0 0.0
2017-Nov-04 18:55N 38°40' W 009°09'0 0.0
2017-Nov-04 18:28N 38°40' W 009°09'0 0.0
2017-Nov-04 17:55N 38°40' W 009°09'0 0.0
2017-Nov-04 17:30N 38°40' W 009°09'0 0.0
2017-Nov-04 17:00N 38°40' W 009°09'0 0.0
2017-Nov-04 16:22N 38°40' W 009°09'0 0.0
2017-Nov-04 16:00N 38°40' W 009°09'0 0.0
2017-Nov-04 15:27N 38°40' W 009°09'0 0.0
2017-Nov-04 14:54N 38°40' W 009°09'0 0.0
2017-Nov-04 14:28N 38°40' W 009°09'0 0.0
2017-Nov-04 14:00N 38°40' W 009°09'0 0.0
2017-Nov-04 13:24N 38°40' W 009°09'0 0.0
2017-Nov-04 12:56N 38°40' W 009°09'0 0.0
2017-Nov-04 12:26N 38°40' W 009°09'0 0.0
2017-Nov-04 11:59N 38°40' W 009°09'0 0.0
2017-Nov-04 11:18N 38°40' W 009°09'0 0.0
2017-Nov-04 11:00N 38°40' W 009°09'0 0.0
2017-Nov-04 10:27N 38°40' W 009°09'0 0.0
2017-Nov-04 10:00N 38°40' W 009°09'0 0.0
2017-Nov-04 09:30N 38°40' W 009°09'0 0.0
2017-Nov-04 08:48N 38°40' W 009°09'0 0.0
2017-Nov-04 08:18N 38°40' W 009°09'0 0.0
2017-Nov-04 07:56N 38°40' W 009°09'0 0.0
2017-Nov-04 07:24N 38°40' W 009°09'0 0.0
2017-Nov-04 06:58N 38°40' W 009°09'0 0.0
2017-Nov-04 06:29N 38°40' W 009°09'0 0.0
2017-Nov-04 05:55N 38°40' W 009°09'0 0.0
2017-Nov-04 05:23N 38°40' W 009°09'0 0.0
2017-Nov-04 05:00N 38°40' W 009°09'0 0.0
2017-Nov-04 04:30N 38°40' W 009°09'0 0.0
2017-Nov-04 04:00N 38°40' W 009°09'0 0.0
2017-Nov-04 03:28N 38°40' W 009°09'0 0.0
2017-Nov-04 03:00N 38°40' W 009°09'0 0.0
2017-Nov-04 02:29N 38°40' W 009°09'0 0.0
2017-Nov-04 01:51N 38°40' W 009°09'0 0.0
2017-Nov-04 01:29N 38°40' W 009°09'0 0.0
2017-Nov-04 01:00N 38°40' W 009°09'0 0.0
2017-Nov-04 00:30N 38°40' W 009°09'0 0.0
2017-Nov-04 00:00N 38°40' W 009°09'0 0.0
2017-Nov-03 23:30N 38°40' W 009°09'0 0.0
2017-Nov-03 22:56N 38°40' W 009°09'0 0.0
2017-Nov-03 22:20N 38°40' W 009°09'0 0.0
2017-Nov-03 22:00N 38°40' W 009°09'0 0.0
2017-Nov-03 21:26N 38°40' W 009°09'0 0.0
2017-Nov-03 20:41N 38°40' W 009°09'0 0.0
2017-Nov-03 20:21N 38°40' W 009°09'0 0.0
2017-Nov-03 19:49N 38°40' W 009°09'0 0.0
2017-Nov-03 19:27N 38°40' W 009°09'0 0.0
2017-Nov-03 18:59N 38°40' W 009°09'0 0.0
2017-Nov-03 18:24N 38°40' W 009°09'0 0.0
2017-Nov-03 17:53N 38°40' W 009°09'0 0.0
2017-Nov-03 17:20N 38°40' W 009°09'0 0.0
2017-Nov-03 16:52N 38°40' W 009°09'0 0.0
2017-Nov-03 16:29N 38°40' W 009°09'0 0.0
2017-Nov-03 16:00N 38°40' W 009°09'0 0.0
2017-Nov-03 15:30N 38°40' W 009°09'0 0.0
2017-Nov-03 14:59N 38°40' W 009°09'0 0.0
2017-Nov-03 14:29N 38°40' W 009°09'0 0.0
2017-Nov-03 13:55N 38°40' W 009°09'0 0.0
2017-Nov-03 13:30N 38°40' W 009°09'0 0.0
2017-Nov-03 13:00N 38°40' W 009°09'0 0.0
2017-Nov-03 12:24N 38°40' W 009°09'0 0.0
2017-Nov-03 11:58N 38°40' W 009°09'0 0.0
2017-Nov-03 11:23N 38°40' W 009°09'0 0.0
2017-Nov-03 10:58N 38°40' W 009°09'0 0.0
2017-Nov-03 10:27N 38°40' W 009°09'0 0.0
2017-Nov-03 09:59N 38°40' W 009°09'0 0.0
2017-Nov-03 09:24N 38°40' W 009°09'0 0.0
2017-Nov-03 08:58N 38°40' W 009°09'0 0.0
2017-Nov-03 08:30N 38°40' W 009°09'0 0.0
2017-Nov-03 07:59N 38°40' W 009°09'0 0.0
2017-Nov-03 07:26N 38°40' W 009°09'0 0.0
2017-Nov-03 07:00N 38°40' W 009°09'0 0.0
2017-Nov-03 06:30N 38°40' W 009°09'0 0.0
2017-Nov-03 05:58N 38°40' W 009°09'0 0.0
2017-Nov-03 05:26N 38°40' W 009°09'0 0.0
2017-Nov-03 04:54N 38°40' W 009°09'0 0.0
2017-Nov-03 04:26N 38°40' W 009°09'0 0.0
2017-Nov-03 03:52N 38°40' W 009°09'0 0.0
2017-Nov-03 03:20N 38°40' W 009°09'0 0.0
2017-Nov-03 03:00N 38°40' W 009°09'0 0.0
2017-Nov-03 02:21N 38°40' W 009°09'0 0.0
2017-Nov-03 02:00N 38°40' W 009°09'0 0.0
2017-Nov-03 01:30N 38°40' W 009°09'0 0.0
2017-Nov-03 00:59N 38°40' W 009°09'0 0.0
2017-Nov-03 00:30N 38°40' W 009°09'0 0.0
2017-Nov-03 00:00N 38°40' W 009°09'0 0.0
2017-Nov-02 22:58N 38°40' W 009°09'0 0.0
2017-Nov-02 22:26N 38°40' W 009°09'0 0.0
2017-Nov-02 21:56N 38°40' W 009°09'0 0.0
2017-Nov-02 21:30N 38°40' W 009°09'0 0.0
2017-Nov-02 20:59N 38°40' W 009°09'0 0.0
2017-Nov-02 20:29N 38°40' W 009°09'0 0.0
2017-Nov-02 19:58N 38°40' W 009°09'0 0.0
2017-Nov-02 19:27N 38°40' W 009°09'0 0.0
2017-Nov-02 18:49N 38°40' W 009°09'0 0.0
2017-Nov-02 18:27N 38°40' W 009°09'0 0.0
2017-Nov-02 18:00N 38°40' W 009°09'0 0.0
2017-Nov-02 17:28N 38°40' W 009°09'0 0.0
2017-Nov-02 16:53N 38°40' W 009°09'0 0.0
2017-Nov-02 16:27N 38°40' W 009°09'0 0.0
2017-Nov-02 16:00N 38°40' W 009°09'0 0.0
2017-Nov-02 15:27N 38°40' W 009°09'0 0.0
2017-Nov-02 15:00N 38°40' W 009°09'0 0.0
2017-Nov-02 14:30N 38°40' W 009°09'0 0.0
2017-Nov-02 14:00N 38°40' W 009°09'0 0.0
2017-Nov-02 13:25N 38°40' W 009°09'0 0.0
2017-Nov-02 12:51N 38°40' W 009°09'0 0.0
2017-Nov-02 12:27N 38°40' W 009°09'0 0.0
2017-Nov-02 11:58N 38°40' W 009°09'0 0.0
2017-Nov-02 11:29N 38°40' W 009°09'0 0.0
2017-Nov-02 10:56N 38°40' W 009°09'0 0.0
2017-Nov-02 10:28N 38°40' W 009°09'0 0.0
2017-Nov-02 10:00N 38°40' W 009°09'0 0.0
2017-Nov-02 09:28N 38°40' W 009°09'0 0.0
2017-Nov-02 08:59N 38°40' W 009°09'0 0.0
2017-Nov-02 08:30N 38°40' W 009°09'0 0.0
2017-Nov-02 08:00N 38°40' W 009°09'0 0.0
2017-Nov-02 07:24N 38°40' W 009°09'0 0.0
2017-Nov-02 06:54N 38°40' W 009°09'0 0.0
2017-Nov-02 06:29N 38°40' W 009°09'0 0.0
2017-Nov-02 06:00N 38°40' W 009°09'0 0.0
2017-Nov-02 05:29N 38°40' W 009°09'0 0.0
2017-Nov-02 04:58N 38°40' W 009°09'0 0.0
2017-Nov-02 04:27N 38°40' W 009°09'0 0.0
2017-Nov-02 03:59N 38°40' W 009°09'0 0.0
2017-Nov-02 03:30N 38°40' W 009°09'0 0.0
2017-Nov-02 03:00N 38°40' W 009°09'0 0.0
2017-Nov-02 02:26N 38°40' W 009°09'0 0.0
2017-Nov-02 01:55N 38°40' W 009°09'0 0.0
2017-Nov-02 01:28N 38°40' W 009°09'0 0.0
2017-Nov-02 00:51N 38°40' W 009°09'0 0.0
2017-Nov-02 00:26N 38°40' W 009°09'0 0.0
2017-Nov-01 23:46N 38°40' W 009°09'0 0.0
2017-Nov-01 23:27N 38°40' W 009°09'0 0.0
2017-Nov-01 23:00N 38°40' W 009°09'0 0.0
2017-Nov-01 22:30N 38°40' W 009°09'0 0.0
2017-Nov-01 21:58N 38°40' W 009°09'0 0.0
2017-Nov-01 21:28N 38°40' W 009°09'0 0.0
2017-Nov-01 20:55N 38°40' W 009°09'0 0.0
2017-Nov-01 20:30N 38°40' W 009°09'0 0.0
2017-Nov-01 19:55N 38°40' W 009°09'0 0.0
2017-Nov-01 19:29N 38°40' W 009°09'0 0.0
2017-Nov-01 19:00N 38°40' W 009°09'0 0.0
2017-Nov-01 18:30N 38°40' W 009°09'0 0.0
2017-Nov-01 01:39N 38°40' W 009°09'0 0.0
2017-Nov-01 01:23N 38°40' W 009°09'0 0.0
2017-Nov-01 00:51N 38°40' W 009°09'0 0.0
2017-Nov-01 00:27N 38°40' W 009°09'0 0.0
2017-Oct-31 23:58N 38°40' W 009°09'0 0.0
2017-Oct-31 23:23N 38°40' W 009°09'0 0.0
2017-Oct-31 22:57N 38°40' W 009°09'0 0.0
2017-Oct-31 22:23N 38°40' W 009°09'0 0.0
2017-Oct-31 21:54N 38°40' W 009°09'0 0.0
2017-Oct-31 21:27N 38°40' W 009°09'0 0.0
2017-Oct-31 20:59N 38°40' W 009°09'0 0.0
2017-Oct-31 20:30N 38°40' W 009°09'0 0.0
2017-Oct-31 19:59N 38°40' W 009°09'  

Dump ship's entire track history